createdAt,value
2018-07-21T00:02:10.707Z,55.50
2018-07-21T00:04:39.815Z,55.80
2018-07-21T00:07:08.871Z,56.10
2018-07-21T00:09:37.948Z,56.60
2018-07-21T00:12:07.055Z,56.80
2018-07-21T00:14:36.112Z,57.10
2018-07-21T00:19:34.119Z,57.70
2018-07-21T00:22:03.211Z,58.00
2018-07-21T00:24:32.335Z,58.20
2018-07-21T00:27:06.323Z,58.40
2018-07-21T00:29:35.457Z,59.00
2018-07-21T00:32:04.567Z,59.10
2018-07-21T00:34:33.686Z,59.50
2018-07-21T00:39:31.574Z,60.40
2018-07-21T00:42:00.699Z,61.00
2018-07-21T00:44:29.734Z,61.60
2018-07-21T00:46:58.868Z,62.10
2018-07-21T00:49:28.029Z,63.10
2018-07-21T00:51:57.155Z,63.40
2018-07-21T00:54:26.205Z,63.70
2018-07-21T00:56:55.317Z,64.20
2018-07-21T00:59:25.292Z,64.80
2018-07-21T01:01:54.359Z,65.00
2018-07-21T01:04:23.507Z,65.30
2018-07-21T01:06:52.582Z,65.80
2018-07-21T01:09:21.614Z,67.00
2018-07-21T01:11:50.740Z,66.80
2018-07-21T01:14:19.814Z,67.40
2018-07-21T01:19:17.690Z,68.80
2018-07-21T01:26:44.246Z,70.00
2018-07-21T01:29:13.298Z,70.40
2018-07-21T01:31:42.392Z,71.20
2018-07-21T01:34:11.394Z,72.00
2018-07-21T01:36:40.642Z,72.30
2018-07-21T01:41:40.087Z,72.90
2018-07-21T01:44:09.154Z,72.90
2018-07-21T01:49:06.976Z,73.90
2018-07-21T01:51:36.260Z,74.60
2018-07-21T01:54:05.316Z,74.90
2018-07-21T01:56:34.409Z,75.10
2018-07-21T02:01:32.172Z,76.20
2018-07-21T02:04:01.298Z,76.80
2018-07-21T02:08:59.096Z,77.90
2018-07-21T02:11:28.154Z,78.70
2018-07-21T02:13:57.240Z,79.40
2018-07-21T02:16:26.367Z,81.00
2018-07-21T02:21:24.140Z,81.40
2018-07-21T02:28:50.883Z,83.30
2018-07-21T02:31:20.106Z,84.00
2018-07-21T02:33:49.242Z,84.40
2018-07-21T02:36:18.310Z,84.60
2018-07-21T02:43:44.786Z,86.10
2018-07-21T02:46:14.803Z,86.50
2018-07-21T02:48:43.947Z,87.30
2018-07-21T02:51:13.001Z,88.00
2018-07-21T02:53:42.068Z,88.60
2018-07-21T02:58:39.886Z,90.00
2018-07-21T03:01:08.929Z,90.30
2018-07-21T03:03:37.966Z,90.50
2018-07-21T03:06:06.712Z,90.70
2018-07-21T03:08:35.823Z,91.00
2018-07-21T03:13:33.552Z,91.40
2018-07-21T03:16:02.618Z,91.60
2018-07-21T03:18:31.665Z,91.80
2018-07-21T03:21:00.743Z,92.10
2018-07-21T03:23:29.829Z,92.40
2018-07-21T03:25:58.984Z,92.70
2018-07-21T03:28:28.067Z,92.90
2018-07-21T03:30:57.221Z,93.20
2018-07-21T03:33:26.276Z,93.10
2018-07-21T03:35:55.439Z,93.30
2018-07-21T03:38:24.556Z,93.40
2018-07-21T03:40:53.677Z,93.50
2018-07-21T03:43:22.735Z,93.60
2018-07-21T03:50:49.296Z,93.90
2018-07-21T03:58:15.891Z,93.90
2018-07-21T04:00:45.275Z,94.00
2018-07-21T04:03:14.413Z,94.10
2018-07-21T04:05:43.486Z,94.20
2018-07-21T04:08:12.606Z,94.30
2018-07-21T04:10:41.759Z,94.30
2018-07-21T04:13:10.814Z,94.30
2018-07-21T04:15:39.888Z,94.30
2018-07-21T04:18:09.003Z,94.40
2018-07-21T04:20:38.107Z,94.40
2018-07-21T04:23:07.223Z,94.40
2018-07-21T04:28:05.064Z,94.20
2018-07-21T04:30:34.214Z,94.20
2018-07-21T04:33:03.366Z,94.30
2018-07-21T04:35:32.546Z,94.30
2018-07-21T04:38:01.628Z,94.30
2018-07-21T04:40:30.669Z,94.30
2018-07-21T04:42:59.923Z,94.30
2018-07-21T04:45:28.942Z,94.50
2018-07-21T04:47:58.139Z,94.00
2018-07-21T04:50:27.258Z,93.90
2018-07-21T04:52:56.354Z,93.80
2018-07-21T04:55:25.446Z,93.50
2018-07-21T05:00:23.905Z,93.10
2018-07-21T05:02:53.018Z,92.90
2018-07-21T05:05:22.116Z,92.70
2018-07-21T05:07:51.208Z,92.70
2018-07-21T05:10:20.303Z,92.60
2018-07-21T05:12:49.476Z,92.30
2018-07-21T05:15:18.571Z,91.90
2018-07-21T05:17:47.666Z,91.70
2018-07-21T05:20:16.749Z,91.50
2018-07-21T05:22:46.753Z,90.80
2018-07-21T05:25:15.833Z,90.60
2018-07-21T05:27:44.952Z,90.40
2018-07-21T05:30:14.010Z,90.10
2018-07-21T05:37:41.264Z,88.90
2018-07-21T05:40:10.383Z,88.20
2018-07-21T05:50:05.883Z,85.90
2018-07-21T05:52:35.002Z,84.80
2018-07-21T05:55:04.107Z,84.90
2018-07-21T05:57:33.191Z,84.40
2018-07-21T06:00:02.320Z,84.50
2018-07-21T06:05:00.122Z,82.30
2018-07-21T06:07:29.261Z,82.20
2018-07-21T06:09:58.315Z,81.60
2018-07-21T06:12:27.381Z,80.40
2018-07-21T06:14:56.458Z,78.70
2018-07-21T06:17:25.531Z,77.30
2018-07-21T06:19:54.626Z,76.30
2018-07-21T06:22:23.691Z,75.80
2018-07-21T06:24:52.749Z,75.20
2018-07-21T06:27:21.843Z,73.60
2018-07-21T06:29:51.042Z,73.60
2018-07-21T06:32:20.120Z,72.60
2018-07-21T06:34:49.271Z,70.60
2018-07-21T06:37:18.350Z,69.90
2018-07-21T06:39:47.404Z,68.70
2018-07-21T06:42:16.530Z,67.80
2018-07-21T06:49:43.695Z,66.80
2018-07-21T06:52:12.778Z,66.50
2018-07-21T06:54:41.926Z,66.20
2018-07-21T06:57:11.183Z,65.90
2018-07-21T06:59:40.364Z,65.80
2018-07-21T07:02:09.671Z,65.70
2018-07-21T07:04:38.823Z,65.60
2018-07-21T07:07:07.947Z,65.60
2018-07-21T07:09:37.043Z,65.40
2018-07-21T07:12:06.133Z,64.70
2018-07-21T07:14:35.271Z,64.20
2018-07-21T07:22:01.864Z,63.20
2018-07-21T07:24:31.187Z,62.80
2018-07-21T07:27:00.310Z,62.10
2018-07-21T07:29:29.515Z,61.30
2018-07-21T07:31:58.677Z,60.40
2018-07-21T07:34:27.929Z,59.30
2018-07-21T07:39:26.401Z,59.00
2018-07-21T07:41:55.519Z,57.70
2018-07-21T07:46:53.321Z,56.70
2018-07-21T07:49:22.446Z,56.70
2018-07-21T07:51:52.694Z,55.70
2018-07-21T07:54:21.920Z,54.70
2018-07-21T07:59:20.183Z,54.50
2018-07-21T08:06:47.102Z,52.80
2018-07-21T08:09:16.219Z,52.70
2018-07-21T08:11:45.418Z,52.00
2018-07-21T08:14:14.657Z,51.80
2018-07-21T08:16:43.940Z,50.50
2018-07-21T08:19:13.139Z,50.60
2018-07-21T08:21:42.262Z,50.30
2018-07-21T08:24:11.391Z,49.60
2018-07-21T08:26:40.519Z,49.40
2018-07-21T08:29:09.631Z,48.40
2018-07-21T08:31:38.814Z,48.50
2018-07-21T08:34:08.809Z,48.30
2018-07-21T08:36:37.980Z,47.50
2018-07-21T08:39:08.853Z,46.70
2018-07-21T08:41:37.962Z,46.80
2018-07-21T08:44:07.431Z,47.00
2018-07-21T08:46:36.791Z,47.30
2018-07-21T08:51:34.884Z,46.20
2018-07-21T08:56:32.677Z,46.00
2018-07-21T08:59:02.055Z,45.90
2018-07-21T09:03:59.909Z,45.70
2018-07-21T09:06:29.022Z,45.10
2018-07-21T09:08:58.249Z,44.90
2018-07-21T09:11:27.331Z,45.00
2018-07-21T09:13:56.402Z,45.20
2018-07-21T09:16:25.475Z,45.60
2018-07-21T09:18:55.151Z,45.20
2018-07-21T09:21:24.396Z,45.10
2018-07-21T09:23:53.503Z,44.30
2018-07-21T09:26:23.429Z,44.50
2018-07-21T09:28:52.659Z,44.40
2018-07-21T09:31:21.780Z,43.90
2018-07-21T09:33:50.910Z,43.50
2018-07-21T09:36:20.126Z,42.70
2018-07-21T09:38:49.283Z,43.00
2018-07-21T09:41:18.387Z,41.80
2018-07-21T09:43:47.566Z,42.30
2018-07-21T09:46:16.686Z,42.10
2018-07-21T09:48:46.858Z,41.70
2018-07-21T09:51:15.947Z,42.60
2018-07-21T09:53:45.055Z,40.70
2018-07-21T09:56:14.118Z,41.00
2018-07-21T10:01:12.074Z,40.30
2018-07-21T10:03:41.207Z,40.20
2018-07-21T10:06:10.609Z,39.60
2018-07-21T10:08:39.666Z,39.90
2018-07-21T10:11:08.927Z,39.20
2018-07-21T10:13:38.046Z,39.40
2018-07-21T10:16:07.165Z,39.10
2018-07-21T10:18:36.255Z,38.80
2018-07-21T10:21:05.428Z,38.90
2018-07-21T10:23:34.562Z,38.60
2018-07-21T10:28:43.288Z,39.10
2018-07-21T10:31:12.385Z,39.30
2018-07-21T10:33:41.550Z,39.10
2018-07-21T10:36:10.692Z,39.90
2018-07-21T10:38:39.758Z,39.80
2018-07-21T10:41:08.922Z,40.20
2018-07-21T10:43:38.081Z,40.40
2018-07-21T10:46:07.190Z,40.20
2018-07-21T10:48:36.286Z,40.00
2018-07-21T10:51:05.391Z,39.90
2018-07-21T10:53:34.530Z,39.30
2018-07-21T10:56:03.712Z,38.70
2018-07-21T10:58:32.819Z,38.70
2018-07-21T11:01:01.961Z,38.50
2018-07-21T11:03:31.667Z,38.60
2018-07-21T11:06:00.718Z,39.10
2018-07-21T11:08:32.001Z,38.90
2018-07-21T11:11:01.059Z,39.60
2018-07-21T11:13:30.319Z,38.50
2018-07-21T11:15:59.496Z,38.90
2018-07-21T11:18:28.982Z,38.30
2018-07-21T11:23:27.515Z,38.30
2018-07-21T11:25:56.602Z,38.30
2018-07-21T11:28:28.364Z,37.60
2018-07-21T11:30:57.512Z,37.80
2018-07-21T11:33:26.646Z,37.50
2018-07-21T11:35:55.882Z,37.00
2018-07-21T11:38:25.014Z,37.10
2018-07-21T11:43:22.933Z,37.00
2018-07-21T11:45:52.075Z,37.00
2018-07-21T11:48:21.174Z,36.80
2018-07-21T11:50:50.280Z,36.70
2018-07-21T11:53:19.511Z,36.80
2018-07-21T11:55:48.658Z,37.20
2018-07-21T11:58:17.792Z,37.40
2018-07-21T12:00:46.982Z,37.40
2018-07-21T12:03:16.213Z,36.80
2018-07-21T12:05:45.344Z,36.40
2018-07-21T12:08:14.478Z,36.10
2018-07-21T12:10:43.581Z,36.20
2018-07-21T12:13:12.708Z,36.30
2018-07-21T12:15:41.908Z,35.80
2018-07-21T12:18:10.976Z,35.70
2018-07-21T12:20:40.043Z,36.00
2018-07-21T12:28:07.234Z,35.20
2018-07-21T12:30:36.275Z,34.90
2018-07-21T12:33:05.387Z,35.10
2018-07-21T12:35:34.579Z,35.10
2018-07-21T12:38:03.936Z,34.30
2018-07-21T12:40:33.039Z,34.50
2018-07-21T12:43:03.169Z,34.30
2018-07-21T12:45:32.248Z,33.90
2018-07-21T12:48:01.402Z,33.00
2018-07-21T12:52:59.196Z,31.60
2018-07-21T12:57:56.997Z,29.70
2018-07-21T13:00:26.079Z,29.30
2018-07-21T13:02:55.223Z,28.80
2018-07-21T13:05:24.290Z,28.80
2018-07-21T13:07:53.369Z,28.60
2018-07-21T13:10:22.486Z,27.40
2018-07-21T13:12:51.591Z,26.90
2018-07-21T13:15:20.651Z,26.60
2018-07-21T13:17:49.721Z,26.50
2018-07-21T13:22:47.548Z,25.90
2018-07-21T13:25:16.693Z,25.50
2018-07-21T13:27:45.933Z,25.40
2018-07-21T13:30:15.074Z,26.50
2018-07-21T13:32:44.198Z,25.90
2018-07-21T13:37:42.077Z,25.50
2018-07-21T13:40:11.176Z,25.70
2018-07-21T13:45:08.983Z,25.80
2018-07-21T13:47:38.158Z,25.00
2018-07-21T13:52:35.924Z,25.20
2018-07-21T13:55:06.215Z,25.40
2018-07-21T13:57:35.288Z,24.90
2018-07-21T14:00:07.392Z,24.80
2018-07-21T14:02:36.442Z,25.00
2018-07-21T14:05:05.954Z,25.50
2018-07-21T14:07:35.141Z,25.90
2018-07-21T14:10:04.477Z,26.00
2018-07-21T14:12:33.577Z,25.90
2018-07-21T14:15:02.667Z,26.70
2018-07-21T14:17:31.798Z,27.10
2018-07-21T14:22:29.728Z,27.50
2018-07-21T14:24:58.793Z,27.80
2018-07-21T14:27:27.906Z,27.90
2018-07-21T14:29:57.096Z,28.20
2018-07-21T14:32:26.227Z,28.50
2018-07-21T14:34:55.369Z,27.90
2018-07-21T14:37:24.535Z,26.50
2018-07-21T14:39:53.598Z,25.90
2018-07-21T14:42:22.661Z,25.40
2018-07-21T14:44:51.745Z,24.70
2018-07-21T14:47:20.810Z,25.20
2018-07-21T14:49:49.995Z,25.30
2018-07-21T14:52:19.023Z,25.70
2018-07-21T14:54:48.201Z,26.50
2018-07-21T14:57:17.407Z,27.40
2018-07-21T15:04:43.943Z,29.60
2018-07-21T15:07:12.965Z,29.20
2018-07-21T15:12:10.908Z,29.50
2018-07-21T15:14:40.137Z,28.90
2018-07-21T15:17:09.249Z,28.40
2018-07-21T15:22:07.161Z,27.20
2018-07-21T15:24:36.306Z,26.40
2018-07-21T15:27:05.446Z,25.90
2018-07-21T15:29:34.666Z,25.00
2018-07-21T15:32:03.744Z,24.40
2018-07-21T15:34:32.829Z,23.80
2018-07-21T15:37:02.090Z,24.00
2018-07-21T15:39:31.201Z,23.90
2018-07-21T15:44:29.155Z,24.90
2018-07-21T15:46:58.222Z,24.90
2018-07-21T15:49:28.294Z,24.40
2018-07-21T15:51:57.483Z,24.30
2018-07-21T15:54:26.599Z,24.80
2018-07-21T15:59:24.404Z,24.90
2018-07-21T16:01:53.506Z,25.50
2018-07-21T16:04:22.602Z,25.80
2018-07-21T16:06:51.759Z,25.50
2018-07-21T16:11:49.608Z,25.90
2018-07-21T16:14:18.726Z,25.90
2018-07-21T16:19:16.558Z,26.10
2018-07-21T16:21:45.612Z,26.00
2018-07-21T16:26:43.484Z,25.90
2018-07-21T16:29:12.501Z,25.70
2018-07-21T16:31:41.583Z,25.80
2018-07-21T16:36:39.396Z,26.30
2018-07-21T16:39:10.130Z,26.10
2018-07-21T16:41:39.188Z,26.70
2018-07-21T16:44:08.280Z,27.60
2018-07-21T16:49:06.127Z,29.40
2018-07-21T16:51:35.174Z,30.00
2018-07-21T16:54:04.273Z,30.80
2018-07-21T16:56:33.399Z,31.70
2018-07-21T16:59:02.603Z,32.20
2018-07-21T17:01:31.907Z,32.40
2018-07-21T17:04:02.196Z,32.70
2018-07-21T17:06:32.829Z,32.90
2018-07-21T17:09:03.116Z,33.40
2018-07-21T17:11:33.034Z,33.70
2018-07-21T17:16:36.878Z,34.40
2018-07-21T17:19:06.695Z,35.00
2018-07-21T17:21:36.792Z,35.30
2018-07-21T17:24:06.975Z,35.50
2018-07-21T17:26:36.110Z,35.80
2018-07-21T17:29:06.425Z,35.90
2018-07-21T17:31:36.002Z,36.10
2018-07-21T17:34:05.123Z,36.20
2018-07-21T17:36:34.245Z,36.30
2018-07-21T17:39:14.744Z,36.70
2018-07-21T17:41:45.484Z,37.30
2018-07-21T17:46:45.315Z,37.90
2018-07-21T17:49:15.685Z,38.80
2018-07-21T17:51:45.821Z,39.20
2018-07-21T17:54:15.011Z,38.70
2018-07-21T17:56:44.070Z,39.00
2018-07-21T18:04:13.622Z,39.40
2018-07-21T18:06:45.297Z,39.30
2018-07-21T18:09:14.503Z,39.40
2018-07-21T18:12:37.630Z,39.40
2018-07-21T18:17:44.492Z,39.90
2018-07-21T18:20:15.367Z,40.00
2018-07-21T18:22:52.035Z,40.10
2018-07-21T18:27:55.042Z,40.50
2018-07-21T18:32:54.260Z,40.80
2018-07-21T18:35:26.211Z,40.80
2018-07-21T18:38:00.605Z,41.00
2018-07-21T18:40:32.512Z,41.20
2018-07-21T18:43:03.932Z,41.30
2018-07-21T18:45:38.103Z,41.50
2018-07-21T18:48:08.398Z,42.00
2018-07-21T18:50:39.740Z,42.20
2018-07-21T18:53:09.657Z,42.40
2018-07-21T18:55:39.164Z,42.20
2018-07-21T18:58:27.047Z,42.40
2018-07-21T19:01:02.978Z,42.50
2018-07-21T19:03:35.526Z,42.70
2018-07-21T19:06:10.503Z,42.90
2018-07-21T19:09:13.579Z,43.10
2018-07-21T19:11:53.840Z,43.30
2018-07-21T19:17:10.015Z,43.80
2018-07-21T19:19:44.504Z,44.00
2018-07-21T19:22:14.688Z,44.20
2018-07-21T19:24:44.412Z,44.50
2018-07-21T19:27:20.256Z,44.50
2018-07-21T19:29:49.874Z,44.60
2018-07-21T19:32:25.256Z,44.50
2018-07-21T19:34:54.490Z,44.90
2018-07-21T19:37:56.355Z,44.70
2018-07-21T19:40:26.554Z,44.80
2018-07-21T19:42:57.386Z,45.10
2018-07-21T19:45:27.326Z,45.20
2018-07-21T19:47:56.946Z,45.40
2018-07-21T19:51:14.670Z,45.30
2018-07-21T19:56:16.892Z,45.80
2018-07-21T19:58:49.881Z,45.90
2018-07-21T20:01:23.479Z,45.50
2018-07-21T20:03:55.464Z,46.00
2018-07-21T20:06:31.230Z,46.10
2018-07-21T20:09:04.118Z,46.60
2018-07-21T20:11:34.327Z,46.50
2018-07-21T20:14:03.561Z,46.60
2018-07-21T20:16:39.082Z,46.60
2018-07-21T20:19:13.791Z,46.80
2018-07-21T20:21:47.083Z,46.80
2018-07-21T20:24:17.297Z,47.10
2018-07-21T20:29:33.917Z,47.40
2018-07-21T20:34:36.835Z,47.60
2018-07-21T20:37:17.446Z,47.70
2018-07-21T20:39:49.511Z,47.90
2018-07-21T20:42:21.098Z,48.00
2018-07-21T20:47:24.022Z,48.40
2018-07-21T20:49:54.974Z,48.60
2018-07-21T20:52:24.157Z,48.80
2018-07-21T20:58:25.943Z,49.20
2018-07-21T21:01:01.948Z,49.40
2018-07-21T21:03:34.565Z,49.80
2018-07-21T21:06:10.174Z,49.80
2018-07-21T21:11:24.294Z,50.10
2018-07-21T21:14:06.693Z,50.30
2018-07-21T21:16:39.537Z,50.40
2018-07-21T21:19:08.673Z,50.50
2018-07-21T21:21:42.196Z,51.50
2018-07-21T21:24:12.812Z,50.80
2018-07-21T21:26:51.180Z,51.20
2018-07-21T21:32:01.630Z,51.40
2018-07-21T21:34:33.850Z,51.90
2018-07-21T21:37:08.482Z,51.70
2018-07-21T21:39:41.668Z,51.90
2018-07-21T21:43:19.581Z,51.90
2018-07-21T21:45:59.878Z,52.00
2018-07-21T21:48:33.347Z,51.90
2018-07-21T21:51:05.878Z,51.90
2018-07-21T21:53:37.279Z,51.80
2018-07-21T21:56:11.757Z,51.70
2018-07-21T22:01:17.464Z,51.70
2018-07-21T22:03:46.538Z,51.60
2018-07-21T22:06:16.007Z,51.60
2018-07-21T22:08:45.839Z,51.70
2018-07-21T22:11:14.914Z,51.90
2018-07-21T22:13:43.988Z,51.70
2018-07-21T22:16:13.225Z,52.00
2018-07-21T22:21:11.184Z,52.00
2018-07-21T22:23:40.942Z,52.10
2018-07-21T22:26:10.044Z,52.00
2018-07-21T22:28:39.123Z,51.90
2018-07-21T22:31:08.262Z,52.20
2018-07-21T22:33:37.418Z,52.10
2018-07-21T22:36:06.547Z,51.80
2018-07-21T22:38:36.270Z,52.00
2018-07-21T22:41:05.521Z,51.90
2018-07-21T22:43:34.603Z,52.20
2018-07-21T22:46:04.099Z,52.40
2018-07-21T22:48:34.073Z,52.40
2018-07-21T22:51:03.278Z,52.60
2018-07-21T22:53:33.302Z,52.70
2018-07-21T22:56:02.602Z,52.70
2018-07-21T22:58:32.142Z,52.90
2018-07-21T23:01:01.283Z,52.80
2018-07-21T23:03:30.358Z,52.70
2018-07-21T23:05:59.496Z,52.70
2018-07-21T23:08:28.622Z,52.80
2018-07-21T23:10:57.780Z,52.80
2018-07-21T23:13:26.860Z,52.90
2018-07-21T23:15:55.905Z,52.90
2018-07-21T23:18:25.785Z,52.60
2018-07-21T23:20:54.920Z,52.40
2018-07-21T23:23:24.032Z,52.40
2018-07-21T23:25:53.339Z,52.20
2018-07-21T23:28:23.155Z,52.10
2018-07-21T23:30:52.245Z,52.10
2018-07-21T23:33:21.295Z,52.00
2018-07-21T23:35:50.363Z,51.70
2018-07-21T23:38:19.486Z,51.50
2018-07-21T23:43:17.394Z,51.00
2018-07-21T23:45:46.541Z,50.90
2018-07-21T23:48:15.558Z,50.80
2018-07-21T23:53:13.414Z,51.00
2018-07-21T23:55:42.442Z,50.90
